Time;durP1;ratioP1;P1;durP2;ratioP2;P2;SDS_P1;SDS_P2;PMS_P1;PMS_P2;Temp;Humidity;BMP_temperature;BMP_pressure;BME280_temperature;BME280_humidity;BME280_pressure;Samples;Min_cycle;Max_cycle;Signal;HPM_P1;HPM_P2
2021/07/22 00:00:57;;;;;;;9.15;5.68;;;;;;;16.39;72.59;97236.31;127762;1096;24465;-94
2021/07/22 00:03:28;;;;;;;7.35;5.35;;;;;;;16.41;72.67;97232.23;127716;1097;26268;-95
2021/07/22 00:06:02;;;;;;;9.25;6.30;;;;;;;16.44;72.67;97236.19;127665;1096;23380;-92
2021/07/22 00:08:33;;;;;;;9.80;6.13;;;;;;;16.42;72.68;97238.38;127727;1096;24953;-93
2021/07/22 00:11:06;;;;;;;11.08;6.95;;;;;;;16.37;72.62;97228.58;127659;1096;24207;-94
2021/07/22 00:13:38;;;;;;;10.20;6.20;;;;;;;16.35;72.77;97229.98;127693;1096;24802;-93
2021/07/22 00:16:09;;;;;;;10.03;6.33;;;;;;;16.35;72.81;97228.09;127707;1096;29894;-94
2021/07/22 00:18:41;;;;;;;10.05;7.08;;;;;;;16.39;72.93;97234.42;127652;1096;24855;-95
2021/07/22 00:21:12;;;;;;;8.60;6.10;;;;;;;16.45;73.12;97233.21;127598;1097;29847;-94
2021/07/22 00:23:44;;;;;;;8.88;6.55;;;;;;;16.47;72.97;97231.05;127660;1096;25052;-94
2021/07/22 00:26:16;;;;;;;12.20;7.15;;;;;;;16.46;72.81;97231.33;127664;1096;25242;-94
2021/07/22 00:28:47;;;;;;;11.05;6.65;;;;;;;16.49;72.89;97222.72;127733;1096;25267;-94
2021/07/22 00:31:18;;;;;;;9.80;6.70;;;;;;;16.54;72.81;97220.70;127724;1096;43072;-93
2021/07/22 00:33:50;;;;;;;12.00;6.30;;;;;;;16.57;72.89;97217.42;127601;1097;34282;-92
2021/07/22 00:36:21;;;;;;;11.80;6.58;;;;;;;16.57;73.09;97220.10;127625;1096;31945;-94
2021/07/22 00:38:52;;;;;;;9.70;5.73;;;;;;;16.46;73.15;97224.09;127691;1096;22803;-94
2021/07/22 00:41:24;;;;;;;9.38;6.03;;;;;;;16.38;73.55;97219.45;127754;1096;23666;-94
2021/07/22 00:43:55;;;;;;;7.88;5.10;;;;;;;16.33;73.99;97224.93;127739;1096;25294;-94
2021/07/22 00:46:27;;;;;;;10.03;5.00;;;;;;;16.29;73.63;97218.57;127735;1096;25208;-93
2021/07/22 00:48:58;;;;;;;8.13;5.48;;;;;;;16.31;73.69;97209.15;127783;1097;22835;-94
2021/07/22 00:51:29;;;;;;;8.55;5.45;;;;;;;16.35;74.02;97214.72;127767;1096;24962;-90
2021/07/22 00:54:01;;;;;;;8.80;5.38;;;;;;;16.32;74.33;97212.62;127760;1096;24736;-94
2021/07/22 00:56:32;;;;;;;8.43;4.95;;;;;;;16.26;74.31;97211.95;127680;1097;26456;-95
2021/07/22 00:59:04;;;;;;;9.27;6.07;;;;;;;16.27;74.85;97210.84;127677;1095;23861;-94
2021/07/22 01:01:35;;;;;;;8.20;5.13;;;;;;;16.27;74.86;97204.70;127726;1095;27416;-94
2021/07/22 01:04:06;;;;;;;9.63;5.05;;;;;;;16.31;74.61;97217.17;127683;1097;23048;-94
2021/07/22 01:06:38;;;;;;;8.98;5.55;;;;;;;16.24;74.43;97221.37;127724;1097;23734;-94
2021/07/22 01:09:09;;;;;;;9.75;5.58;;;;;;;16.11;74.49;97227.52;127680;1096;24024;-94
2021/07/22 01:11:40;;;;;;;9.13;5.53;;;;;;;15.99;74.83;97223.45;127730;1095;24403;-94
2021/07/22 01:14:12;;;;;;;12.35;6.68;;;;;;;15.96;74.70;97225.94;127674;1096;29536;-94
2021/07/22 01:16:44;;;;;;;10.98;6.48;;;;;;;15.96;75.41;97226.73;127695;1097;22925;-93
2021/07/22 01:19:15;;;;;;;8.68;5.80;;;;;;;15.93;75.28;97231.89;127789;1095;24557;-94
2021/07/22 01:21:46;;;;;;;8.43;6.28;;;;;;;15.90;75.54;97227.11;127784;1096;32221;-94
2021/07/22 01:24:18;;;;;;;8.53;6.15;;;;;;;15.86;75.63;97223.45;127717;1096;28845;-94
2021/07/22 01:26:49;;;;;;;9.93;5.98;;;;;;;15.81;75.91;97227.03;127701;1096;27182;-93
2021/07/22 01:29:21;;;;;;;9.15;5.48;;;;;;;15.86;76.01;97231.47;127701;1096;30586;-95
2021/07/22 01:31:52;;;;;;;8.83;5.30;;;;;;;15.92;75.96;97233.77;127691;1096;31762;-94
2021/07/22 01:34:23;;;;;;;8.75;5.63;;;;;;;15.91;76.05;97231.39;127724;1095;26210;-95
2021/07/22 01:36:55;;;;;;;9.63;5.73;;;;;;;15.83;76.18;97227.52;127785;1096;26656;-95
2021/07/22 01:39:26;;;;;;;8.63;5.65;;;;;;;15.82;76.35;97231.28;127814;1096;32179;-94
2021/07/22 01:41:57;;;;;;;7.70;5.30;;;;;;;15.84;76.62;97229.09;127836;1095;26617;-94
2021/07/22 01:44:30;;;;;;;9.43;5.80;;;;;;;15.83;77.32;97222.17;127816;1096;29161;-87
2021/07/22 01:47:03;;;;;;;6.95;4.93;;;;;;;15.85;77.03;97225.34;127695;1095;26229;-93
2021/07/22 01:49:35;;;;;;;10.23;5.50;;;;;;;15.89;77.08;97223.64;127685;1097;29506;-95
2021/07/22 01:52:07;;;;;;;8.33;5.10;;;;;;;15.93;77.24;97223.87;127706;1095;27913;-95
2021/07/22 01:54:39;;;;;;;7.83;5.15;;;;;;;15.96;77.38;97221.38;127700;1097;33440;-94
2021/07/22 01:57:10;;;;;;;9.70;4.98;;;;;;;16.01;77.14;97223.16;127679;1097;35542;-94
2021/07/22 01:59:42;;;;;;;8.17;5.10;;;;;;;16.04;77.09;97225.23;127721;1096;26635;-94
2021/07/22 02:02:14;;;;;;;8.53;5.48;;;;;;;16.10;77.22;97223.27;127742;1094;25065;-95
2021/07/22 02:04:45;;;;;;;8.33;5.53;;;;;;;16.15;77.20;97228.50;127724;1096;28554;-95
2021/07/22 02:07:17;;;;;;;7.98;5.08;;;;;;;16.19;77.04;97230.30;127749;1096;31185;-94
2021/07/22 02:09:48;;;;;;;8.00;4.60;;;;;;;16.16;76.61;97230.08;127726;1096;31844;-95
2021/07/22 02:12:20;;;;;;;9.37;5.33;;;;;;;16.15;76.52;97226.61;127771;1096;30451;-95
2021/07/22 02:14:51;;;;;;;8.00;5.03;;;;;;;16.20;76.73;97225.73;127774;1097;31498;-95
2021/07/22 02:17:23;;;;;;;8.43;5.58;;;;;;;16.17;76.22;97227.10;127753;1096;28368;-95
2021/07/22 02:19:54;;;;;;;10.68;4.95;;;;;;;16.15;76.38;97223.94;127674;1097;28186;-93
2021/07/22 02:22:26;;;;;;;7.40;4.90;;;;;;;16.08;76.62;97220.09;127875;1096;47294;-94
2021/07/22 02:24:57;;;;;;;9.18;5.38;;;;;;;15.94;76.95;97222.77;127740;1095;66317;-95
2021/07/22 02:27:29;;;;;;;9.33;5.20;;;;;;;15.87;77.16;97225.03;127745;1095;38760;-94
2021/07/22 02:30:01;;;;;;;7.25;4.70;;;;;;;15.82;77.30;97225.14;127863;1095;29893;-95
2021/07/22 02:32:33;;;;;;;9.35;5.40;;;;;;;15.86;77.28;97232.27;127742;1096;30030;-94
2021/07/22 02:35:05;;;;;;;8.85;4.75;;;;;;;15.89;77.75;97225.53;127718;1097;32670;-95
2021/07/22 02:37:37;;;;;;;6.93;4.73;;;;;;;15.74;77.87;97230.08;127764;1097;31946;-95
2021/07/22 02:40:10;;;;;;;8.95;5.35;;;;;;;15.63;77.96;97233.25;127767;1096;31270;-95
2021/07/22 02:42:42;;;;;;;6.95;5.35;;;;;;;15.57;78.13;97234.38;127754;1095;61427;-95
2021/07/22 02:45:14;;;;;;;8.03;5.50;;;;;;;15.51;78.29;97232.90;127687;1096;31204;-94
2021/07/22 02:47:46;;;;;;;9.78;5.43;;;;;;;15.50;78.59;97228.65;127733;1096;30220;-94
2021/07/22 02:50:18;;;;;;;9.05;4.85;;;;;;;15.49;78.50;97237.75;127790;1097;34279;-95
2021/07/22 02:52:49;;;;;;;8.28;4.83;;;;;;;15.51;78.28;97236.37;127795;1095;28638;-95
2021/07/22 02:55:21;;;;;;;9.65;5.25;;;;;;;15.52;78.32;97232.61;127787;1095;27631;-95
2021/07/22 02:57:53;;;;;;;7.53;4.83;;;;;;;15.54;78.49;97237.66;127780;1095;32223;-95
2021/07/22 03:00:25;;;;;;;8.73;4.77;;;;;;;15.55;78.42;97244.58;127903;1096;30319;-95
2021/07/22 03:03:00;;;;;;;10.27;5.67;;;;;;;15.54;78.26;97240.33;127898;1095;29275;-94
2021/07/22 03:05:32;;;;;;;8.40;5.10;;;;;;;15.56;78.18;97243.49;127812;1096;61402;-94
2021/07/22 03:08:04;;;;;;;8.53;5.33;;;;;;;15.62;78.08;97242.33;127793;1096;24926;-94
2021/07/22 03:10:35;;;;;;;9.05;5.13;;;;;;;15.60;78.00;97242.63;127710;1096;36626;-94
2021/07/22 03:13:07;;;;;;;8.48;4.85;;;;;;;15.57;77.75;97243.19;127737;1097;32829;-94
2021/07/22 03:15:38;;;;;;;9.50;6.03;;;;;;;15.57;77.81;97239.73;127857;1096;25089;-94
2021/07/22 03:18:10;;;;;;;8.85;5.55;;;;;;;15.58;77.92;97227.95;127751;1097;38139;-94
2021/07/22 03:20:41;;;;;;;8.60;5.30;;;;;;;15.62;77.78;97231.64;127794;1096;32334;-96
2021/07/22 03:23:16;;;;;;;10.03;5.63;;;;;;;15.59;77.37;97238.38;127824;1096;31826;-95
2021/07/22 03:25:48;;;;;;;9.28;6.48;;;;;;;15.46;77.52;97239.11;127717;1097;28672;-95
2021/07/22 03:28:19;;;;;;;8.05;5.80;;;;;;;15.38;77.83;97235.25;128391;1095;36100;-92
2021/07/22 03:30:51;;;;;;;10.18;5.68;;;;;;;15.31;77.78;97232.14;129787;1096;32245;-95
2021/07/22 03:33:22;;;;;;;9.90;5.93;;;;;;;15.31;78.14;97236.70;129488;1095;28079;-95
2021/07/22 03:35:54;;;;;;;9.43;6.20;;;;;;;15.27;78.20;97231.16;127670;1094;31625;-93
2021/07/22 03:38:25;;;;;;;8.88;6.05;;;;;;;15.26;78.42;97228.78;127808;1096;28902;-95
2021/07/22 03:40:57;;;;;;;9.43;5.78;;;;;;;15.29;78.89;97234.33;127820;1095;32287;-95
2021/07/22 03:43:28;;;;;;;9.30;6.28;;;;;;;15.35;78.79;97249.20;127793;1096;30080;-95
2021/07/22 03:46:03;;;;;;;9.70;6.00;;;;;;;15.44;79.13;97239.41;127662;1097;47718;-93
2021/07/22 03:48:35;;;;;;;8.55;5.78;;;;;;;15.57;79.08;97239.73;127699;1096;32717;-94
2021/07/22 03:51:06;;;;;;;8.53;5.65;;;;;;;15.60;78.58;97239.95;127694;1097;32065;-95
2021/07/22 03:53:38;;;;;;;10.90;6.37;;;;;;;15.61;78.28;97230.84;127727;1097;32919;-94
2021/07/22 03:56:09;;;;;;;9.73;5.88;;;;;;;15.63;78.70;97239.39;127757;1096;30027;-95
2021/07/22 03:58:40;;;;;;;8.70;5.68;;;;;;;15.65;78.81;97233.75;127745;1097;33410;-95
2021/07/22 04:01:12;;;;;;;8.53;5.23;;;;;;;15.71;78.47;97240.58;127685;1096;32606;-94
2021/07/22 04:03:44;;;;;;;10.38;5.33;;;;;;;15.78;78.62;97240.20;127716;1095;33970;-95
2021/07/22 04:06:15;;;;;;;9.43;6.10;;;;;;;15.69;78.18;97232.85;127757;1096;34208;-95
2021/07/22 04:08:46;;;;;;;11.10;6.00;;;;;;;15.68;78.34;97241.96;127745;1096;29460;-95
2021/07/22 04:11:18;;;;;;;8.45;5.78;;;;;;;15.68;78.49;97236.61;127761;1096;30851;-95
2021/07/22 04:13:52;;;;;;;9.50;6.55;;;;;;;15.81;78.96;97240.39;127740;1096;30169;-94
2021/07/22 04:16:23;;;;;;;9.25;5.90;;;;;;;15.84;78.80;97239.00;127719;1096;28704;-95
2021/07/22 04:18:55;;;;;;;9.28;6.90;;;;;;;15.83;78.82;97243.56;127818;1096;29446;-94
2021/07/22 04:21:26;;;;;;;11.05;6.63;;;;;;;15.88;78.89;97237.31;127748;1097;35848;-94
2021/07/22 04:23:58;;;;;;;10.70;7.25;;;;;;;15.92;78.76;97241.80;127775;1096;24061;-94
2021/07/22 04:26:29;;;;;;;9.30;6.78;;;;;;;15.89;78.73;97239.69;127750;1096;26268;-89
2021/07/22 04:29:01;;;;;;;10.63;6.68;;;;;;;15.96;78.94;97242.77;127826;1096;23454;-91
2021/07/22 04:31:32;;;;;;;11.13;7.17;;;;;;;16.00;78.85;97238.41;127765;1096;26035;-93
2021/07/22 04:34:04;;;;;;;10.13;6.90;;;;;;;16.01;78.88;97239.99;127704;1095;28821;-94
2021/07/22 04:36:35;;;;;;;10.90;6.65;;;;;;;16.09;78.76;97240.41;127745;1095;25922;-94
2021/07/22 04:39:06;;;;;;;11.40;6.60;;;;;;;16.14;78.82;97249.11;127759;1096;24650;-95
2021/07/22 04:41:38;;;;;;;10.30;6.50;;;;;;;16.17;78.66;97243.16;127727;1097;24407;-94
2021/07/22 04:44:09;;;;;;;11.50;6.48;;;;;;;16.22;78.38;97245.75;127731;1096;25983;-95
2021/07/22 04:46:41;;;;;;;9.25;6.63;;;;;;;16.26;78.23;97251.28;127725;1096;22869;-94
2021/07/22 04:49:12;;;;;;;9.40;6.90;;;;;;;16.24;77.86;97248.91;127765;1095;24964;-94
2021/07/22 04:51:44;;;;;;;9.48;6.48;;;;;;;16.24;77.94;97250.80;127643;1096;34716;-95
2021/07/22 04:54:16;;;;;;;9.38;6.38;;;;;;;16.21;77.87;97249.52;127714;1096;32168;-95
2021/07/22 04:56:47;;;;;;;10.60;6.30;;;;;;;16.23;78.05;97249.21;127774;1096;24293;-93
2021/07/22 04:59:19;;;;;;;10.15;6.95;;;;;;;16.22;77.86;97244.95;127835;1096;24695;-94
2021/07/22 05:01:53;;;;;;;10.60;6.88;;;;;;;16.27;78.00;97242.95;127668;1095;31125;-95
2021/07/22 05:04:24;;;;;;;12.55;7.93;;;;;;;16.27;77.45;97247.52;127830;1096;35267;-95
2021/07/22 05:06:57;;;;;;;10.85;7.23;;;;;;;16.25;77.54;97242.47;127797;1096;30803;-93
2021/07/22 05:09:28;;;;;;;10.85;7.45;;;;;;;16.24;77.47;97248.13;127791;1096;32481;-94
2021/07/22 05:12:00;;;;;;;10.70;7.58;;;;;;;16.22;77.50;97247.63;127712;1096;34284;-93
2021/07/22 05:14:31;;;;;;;11.10;7.35;;;;;;;16.24;77.56;97243.56;127714;1096;27681;-94
2021/07/22 05:17:03;;;;;;;12.20;7.23;;;;;;;16.23;77.46;97241.98;127774;1096;30618;-94
2021/07/22 05:19:35;;;;;;;11.35;7.13;;;;;;;16.24;77.50;97245.44;127707;1095;32446;-95
2021/07/22 05:22:06;;;;;;;9.40;6.95;;;;;;;16.29;77.48;97250.68;127768;1096;29855;-94
2021/07/22 05:24:38;;;;;;;9.90;6.90;;;;;;;16.32;77.57;97250.08;127779;1096;27408;-94
2021/07/22 05:27:09;;;;;;;12.10;6.73;;;;;;;16.42;77.40;97246.41;127721;1096;32621;-95
2021/07/22 05:29:41;;;;;;;11.53;7.30;;;;;;;16.50;77.45;97249.18;127726;1096;27107;-94
2021/07/22 05:32:13;;;;;;;11.18;7.10;;;;;;;16.56;77.29;97250.64;127718;1096;30962;-94
2021/07/22 05:34:45;;;;;;;10.95;7.40;;;;;;;16.60;77.49;97245.47;127755;1096;31920;-94
2021/07/22 05:37:20;;;;;;;10.00;6.85;;;;;;;16.61;77.34;97247.88;127759;1096;33407;-95
2021/07/22 05:39:51;;;;;;;9.55;5.93;;;;;;;16.65;77.43;97249.94;127683;1095;36843;-94
2021/07/22 05:42:23;;;;;;;10.35;6.33;;;;;;;16.70;77.54;97247.17;127738;1095;26803;-94
2021/07/22 05:44:54;;;;;;;9.88;6.88;;;;;;;16.73;77.36;97249.24;127704;1097;24253;-94
2021/07/22 05:47:25;;;;;;;11.05;7.00;;;;;;;16.79;77.67;97245.38;127808;1096;33450;-95
2021/07/22 05:49:57;;;;;;;10.18;6.80;;;;;;;16.84;77.75;97248.72;127830;1095;26587;-94
2021/07/22 05:52:29;;;;;;;10.85;6.30;;;;;;;16.91;77.48;97243.75;127758;1096;23081;-94
2021/07/22 05:55:00;;;;;;;12.38;6.73;;;;;;;16.99;77.38;97250.25;127739;1097;29272;-90
2021/07/22 05:57:32;;;;;;;9.98;6.28;;;;;;;17.09;77.40;97252.70;127760;1096;31710;-93
2021/07/22 06:00:04;;;;;;;12.08;6.65;;;;;;;17.15;77.33;97245.32;127794;1096;25218;-94
2021/07/22 06:02:35;;;;;;;9.15;6.68;;;;;;;17.24;77.38;97248.86;127751;1096;25132;-93
2021/07/22 06:05:08;;;;;;;9.95;6.95;;;;;;;17.32;76.93;97250.03;127748;1096;27460;-94
2021/07/22 06:07:40;;;;;;;9.58;7.30;;;;;;;17.37;76.79;97247.21;127645;1096;30497;-94
2021/07/22 06:10:12;;;;;;;11.45;6.93;;;;;;;17.44;76.68;97244.88;127640;1096;25537;-93
2021/07/22 06:12:44;;;;;;;10.13;7.10;;;;;;;17.55;76.73;97248.89;127758;1096;24707;-93
2021/07/22 06:15:15;;;;;;;12.98;7.30;;;;;;;17.69;76.65;97246.94;127727;1095;27704;-93
2021/07/22 06:17:47;;;;;;;10.28;7.00;;;;;;;17.83;76.17;97254.90;127651;1095;31989;-94
2021/07/22 06:20:19;;;;;;;9.48;6.78;;;;;;;18.23;76.48;97241.47;127660;1096;31837;-94
2021/07/22 06:22:51;;;;;;;9.83;6.28;;;;;;;19.37;77.13;97252.78;127765;1096;22812;-94
2021/07/22 06:25:22;;;;;;;10.53;5.80;;;;;;;21.81;75.23;97243.65;127756;1096;23994;-94
2021/07/22 06:27:54;;;;;;;8.48;5.30;;;;;;;22.51;71.52;97238.17;127716;1096;25270;-94
2021/07/22 06:30:25;;;;;;;9.03;5.73;;;;;;;23.12;69.19;97238.06;127646;1096;25276;-96
2021/07/22 06:32:56;;;;;;;9.25;5.48;;;;;;;25.23;68.50;97241.98;127692;1096;25209;-95
2021/07/22 06:35:28;;;;;;;8.23;5.20;;;;;;;28.00;64.91;97238.94;127667;1097;22999;-95
2021/07/22 06:37:59;;;;;;;7.23;4.83;;;;;;;30.19;61.31;97237.59;127672;1096;23001;-95
2021/07/22 06:40:30;;;;;;;7.70;4.83;;;;;;;31.93;56.52;97232.67;127660;1096;23245;-91
2021/07/22 06:43:02;;;;;;;5.78;4.70;;;;;;;32.69;52.85;97237.89;127651;1096;24965;-94
2021/07/22 06:45:34;;;;;;;6.78;4.63;;;;;;;32.95;49.61;97236.46;127595;1096;22857;-94
2021/07/22 06:48:06;;;;;;;6.53;4.03;;;;;;;33.96;49.69;97242.20;127625;1096;26187;-96
2021/07/22 06:50:38;;;;;;;6.50;4.10;;;;;;;33.81;45.41;97230.61;127591;1096;23500;-95
2021/07/22 06:53:09;;;;;;;5.33;3.90;;;;;;;32.72;41.18;97228.83;127653;1096;22824;-95
2021/07/22 06:55:41;;;;;;;7.57;3.90;;;;;;;30.25;40.37;97233.28;127619;1095;25825;-95
2021/07/22 06:58:12;;;;;;;6.90;4.03;;;;;;;29.84;43.18;97230.13;127641;1097;22859;-96
2021/07/22 07:00:44;;;;;;;6.48;4.08;;;;;;;28.98;42.93;97223.64;127636;1096;28136;-94
2021/07/22 07:03:15;;;;;;;6.65;3.45;;;;;;;27.79;44.98;97232.16;127602;1096;26522;-93
2021/07/22 07:05:47;;;;;;;8.03;4.37;;;;;;;27.02;45.82;97235.57;127643;1096;24195;-95
2021/07/22 07:08:19;;;;;;;6.23;4.55;;;;;;;26.70;46.46;97228.91;127639;1096;35250;-94
2021/07/22 07:10:51;;;;;;;6.78;4.28;;;;;;;26.38;47.24;97228.47;127632;1096;23246;-94
2021/07/22 07:13:22;;;;;;;6.50;4.33;;;;;;;26.74;47.72;97227.02;127661;1096;27542;-95
2021/07/22 07:15:54;;;;;;;7.95;4.63;;;;;;;26.65;46.05;97227.30;127621;1096;26337;-95
2021/07/22 07:18:25;;;;;;;6.23;4.30;;;;;;;26.24;45.27;97218.14;127658;1096;25734;-95
2021/07/22 07:20:56;;;;;;;7.08;4.00;;;;;;;25.41;45.97;97226.02;127709;1096;33585;-95
2021/07/22 07:23:28;;;;;;;5.43;3.95;;;;;;;25.35;46.69;97222.83;127670;1095;29359;-95
2021/07/22 07:26:00;;;;;;;6.70;3.90;;;;;;;25.68;48.01;97224.19;127697;1095;30407;-94
2021/07/22 07:28:31;;;;;;;6.58;4.03;;;;;;;26.64;46.60;97217.58;127569;1096;33719;-93
2021/07/22 07:31:03;;;;;;;7.25;3.83;;;;;;;27.01;44.34;97217.67;127691;1096;26513;-93
2021/07/22 07:33:35;;;;;;;6.28;3.80;;;;;;;27.29;45.08;97222.66;127635;1096;27916;-96
2021/07/22 07:36:07;;;;;;;4.60;3.38;;;;;;;29.32;43.61;97221.44;127618;1096;30778;-94
2021/07/22 07:38:38;;;;;;;8.85;3.73;;;;;;;31.27;41.79;97217.80;127566;1096;31986;-96
2021/07/22 07:41:10;;;;;;;4.70;3.65;;;;;;;32.42;38.83;97218.56;127647;1096;25451;-93
2021/07/22 07:43:41;;;;;;;4.98;3.70;;;;;;;33.97;40.83;97218.99;127566;1095;27067;-95
2021/07/22 07:46:12;;;;;;;4.15;3.20;;;;;;;35.69;36.30;97218.03;127611;1096;24153;-95
2021/07/22 07:48:44;;;;;;;3.83;3.33;;;;;;;36.74;36.31;97212.28;127621;1096;24345;-95
2021/07/22 07:51:15;;;;;;;5.10;3.38;;;;;;;37.56;33.64;97218.22;127605;1096;27621;-93
2021/07/22 07:53:47;;;;;;;4.08;3.53;;;;;;;37.13;35.01;97216.71;127626;1096;22963;-94
2021/07/22 07:56:19;;;;;;;7.43;4.45;;;;;;;37.80;30.90;97224.22;127617;1097;22799;-95
2021/07/22 07:58:50;;;;;;;4.88;3.80;;;;;;;37.10;31.58;97217.59;127627;1096;23930;-96
2021/07/22 08:01:25;;;;;;;4.40;4.00;;;;;;;36.48;31.72;97216.16;127621;1095;23950;-95
2021/07/22 08:03:57;;;;;;;5.53;4.13;;;;;;;35.67;32.26;97220.45;127708;1096;24058;-94
2021/07/22 08:06:29;;;;;;;5.43;3.58;;;;;;;36.99;33.72;97221.88;127635;1096;22861;-95
2021/07/22 08:09:01;;;;;;;4.80;4.08;;;;;;;38.16;30.95;97223.84;127601;1097;22828;-92
2021/07/22 08:11:32;;;;;;;4.98;3.80;;;;;;;38.93;30.47;97213.28;127628;1096;25186;-94
2021/07/22 08:14:04;;;;;;;3.93;3.40;;;;;;;39.51;30.69;97223.80;127572;1096;28810;-93
2021/07/22 08:16:35;;;;;;;4.57;3.03;;;;;;;40.63;29.77;97227.98;127589;1095;23336;-93
2021/07/22 08:19:06;;;;;;;4.23;3.35;;;;;;;40.51;28.99;97226.12;127567;1097;23614;-93
2021/07/22 08:21:38;;;;;;;5.10;3.78;;;;;;;38.10;26.80;97220.08;127574;1096;35575;-94
2021/07/22 08:24:09;;;;;;;5.75;4.03;;;;;;;34.74;28.44;97216.06;127573;1096;25056;-93
2021/07/22 08:26:41;;;;;;;5.00;3.43;;;;;;;32.02;30.51;97224.77;127572;1096;23545;-94
2021/07/22 08:29:12;;;;;;;5.43;4.30;;;;;;;30.24;32.99;97223.52;127601;1095;22811;-94
2021/07/22 08:31:43;;;;;;;4.93;3.60;;;;;;;29.00;34.37;97223.25;127590;1095;22818;-94
2021/07/22 08:34:17;;;;;;;6.13;4.23;;;;;;;27.60;35.95;97216.00;127571;1095;25667;-91
2021/07/22 08:36:48;;;;;;;6.85;3.95;;;;;;;26.83;38.15;97227.53;127594;1096;23540;-91
2021/07/22 08:39:20;;;;;;;5.98;3.70;;;;;;;26.21;37.93;97218.88;127597;1096;22696;-93
2021/07/22 08:41:51;;;;;;;6.25;3.80;;;;;;;25.43;38.16;97221.80;127598;1097;24382;-92
2021/07/22 08:44:24;;;;;;;6.90;3.80;;;;;;;25.06;39.75;97220.71;127582;1096;22889;-94
2021/07/22 08:46:57;;;;;;;6.38;4.40;;;;;;;24.98;41.40;97218.95;127593;1096;31011;-92
2021/07/22 08:49:28;;;;;;;10.20;5.50;;;;;;;24.79;42.08;97217.81;127660;1097;28654;-91
2021/07/22 08:52:01;;;;;;;8.25;4.90;;;;;;;24.78;42.65;97226.31;127659;1095;23143;-94
2021/07/22 08:54:32;;;;;;;7.33;5.23;;;;;;;24.77;43.26;97214.67;127620;1097;23316;-91
2021/07/22 08:57:07;;;;;;;8.43;5.13;;;;;;;24.61;44.22;97216.63;127550;1096;25480;-94
2021/07/22 08:59:39;;;;;;;7.78;4.98;;;;;;;24.57;45.08;97213.07;127559;1096;29281;-96
2021/07/22 09:02:13;;;;;;;11.93;5.05;;;;;;;24.94;45.08;97208.05;129458;1095;24164;-91
2021/07/22 09:04:56;;;;;;;7.93;4.83;;;;;;;25.60;44.82;97206.97;129631;1096;24346;-89
2021/07/22 09:07:29;;;;;;;6.33;3.67;;;;;;;25.91;41.80;97207.92;128590;1096;23497;-93
2021/07/22 09:10:22;;;;;;;6.08;3.88;;;;;;;25.53;42.19;97204.14;127596;1096;25249;-88
2021/07/22 09:12:54;;;;;;;5.70;3.70;;;;;;;25.33;42.22;97205.31;127580;1096;28170;-93
2021/07/22 09:15:28;;;;;;;4.98;3.40;;;;;;;25.16;42.51;97203.84;127583;1096;25145;-91
2021/07/22 09:17:59;;;;;;;5.63;3.40;;;;;;;24.86;42.20;97204.39;127486;1096;26267;-91
2021/07/22 09:20:33;;;;;;;5.05;3.95;;;;;;;24.62;42.89;97212.00;127431;1096;22840;-90
2021/07/22 09:23:06;;;;;;;6.25;4.10;;;;;;;24.18;43.11;97209.45;127468;1097;23647;-91
2021/07/22 09:25:43;;;;;;;7.23;4.48;;;;;;;23.97;44.46;97210.52;127427;1096;24809;-92
2021/07/22 09:28:18;;;;;;;5.10;4.00;;;;;;;24.07;45.34;97209.22;127407;1096;43354;-91
2021/07/22 09:31:01;;;;;;;9.63;4.63;;;;;;;24.07;45.50;97206.51;127439;1096;25880;-90
2021/07/22 09:33:37;;;;;;;6.63;4.33;;;;;;;24.07;45.95;97202.98;127456;1096;31344;-90
2021/07/22 09:36:25;;;;;;;6.73;3.88;;;;;;;24.01;46.16;97213.31;127446;1096;24240;-91
2021/07/22 09:39:16;;;;;;;7.68;4.93;;;;;;;23.83;46.39;97209.39;127591;1096;23592;-90
2021/07/22 09:41:56;;;;;;;7.18;4.20;;;;;;;23.67;47.27;97204.77;127449;1095;23460;-91
2021/07/22 09:44:32;;;;;;;6.00;4.08;;;;;;;23.58;47.35;97196.02;127696;1096;25342;-90
2021/07/22 09:47:05;;;;;;;5.70;3.78;;;;;;;23.53;47.63;97204.38;127555;1096;24434;-91
2021/07/22 09:49:38;;;;;;;7.53;4.33;;;;;;;23.56;48.13;97200.18;127552;1096;24132;-92
2021/07/22 09:52:25;;;;;;;8.85;3.93;;;;;;;23.55;47.67;97204.02;127566;1096;22945;-89
2021/07/22 09:54:56;;;;;;;6.65;4.10;;;;;;;23.27;47.12;97199.44;127677;1096;22870;-90
2021/07/22 09:57:29;;;;;;;6.88;4.18;;;;;;;23.08;48.39;97199.28;127623;1097;26457;-91
2021/07/22 10:00:00;;;;;;;8.05;4.38;;;;;;;23.25;48.46;97195.52;127567;1096;22800;-87
2021/07/22 10:02:32;;;;;;;8.20;4.48;;;;;;;23.38;48.37;97205.92;127367;1095;27163;-91
2021/07/22 10:05:06;;;;;;;8.55;4.50;;;;;;;23.44;48.04;97201.03;127474;1096;26988;-93
2021/07/22 10:07:40;;;;;;;5.65;4.23;;;;;;;23.54;48.56;97194.33;127460;1097;23574;-92
2021/07/22 10:10:13;;;;;;;8.33;4.70;;;;;;;23.50;48.20;97198.84;127436;1096;26514;-91
2021/07/22 10:12:51;;;;;;;7.78;4.23;;;;;;;23.35;47.57;97192.28;127425;1096;25890;-91
2021/07/22 10:15:26;;;;;;;6.33;4.05;;;;;;;23.19;47.16;97188.77;127514;1096;22842;-91
2021/07/22 10:18:00;;;;;;;7.45;4.23;;;;;;;23.19;47.70;97192.25;127617;1096;24586;-90
2021/07/22 10:20:33;;;;;;;6.78;4.28;;;;;;;23.23;47.91;97193.16;127528;1096;23583;-89
2021/07/22 10:23:05;;;;;;;6.23;4.08;;;;;;;23.46;48.24;97184.45;127444;1097;26765;-91
2021/07/22 10:25:37;;;;;;;7.60;4.75;;;;;;;23.67;47.74;97185.03;127470;1096;22984;-91
2021/07/22 10:28:09;;;;;;;6.13;4.50;;;;;;;23.76;48.35;97190.25;127504;1096;22848;-91
2021/07/22 10:30:42;;;;;;;6.78;4.13;;;;;;;23.60;46.61;97182.91;127512;1096;24579;-89
2021/07/22 10:33:19;;;;;;;7.85;5.18;;;;;;;23.36;46.29;97191.14;127515;1095;22812;-92
2021/07/22 10:35:54;;;;;;;9.70;5.38;;;;;;;22.92;48.06;97176.82;127518;1096;30477;-91
2021/07/22 10:38:42;;;;;;;6.70;4.58;;;;;;;22.86;49.62;97187.11;127593;1096;25422;-89
2021/07/22 10:41:37;;;;;;;5.68;4.70;;;;;;;22.96;48.62;97183.92;127544;1096;25178;-89
2021/07/22 10:44:31;;;;;;;7.63;4.98;;;;;;;23.04;50.01;97184.89;127449;1096;24131;-91
2021/07/22 10:47:05;;;;;;;8.13;4.95;;;;;;;22.97;49.92;97180.09;127545;1096;22876;-93
2021/07/22 10:49:44;;;;;;;7.80;5.10;;;;;;;22.87;50.77;97185.19;127611;1096;25717;-93
2021/07/22 10:52:36;;;;;;;7.15;5.05;;;;;;;22.74;51.03;97181.70;127569;1095;24448;-93
2021/07/22 10:55:08;;;;;;;8.20;4.83;;;;;;;22.64;51.20;97184.88;127616;1095;23389;-94
2021/07/22 10:57:41;;;;;;;8.08;5.18;;;;;;;22.51;51.33;97189.53;127602;1096;25648;-94
2021/07/22 11:00:18;;;;;;;8.45;5.43;;;;;;;22.44;52.11;97192.03;127615;1096;22851;-94
2021/07/22 11:02:50;;;;;;;8.83;5.25;;;;;;;22.36;52.36;97192.94;127607;1096;27251;-95
2021/07/22 11:05:55;;;;;;;9.48;5.43;;;;;;;22.30;52.77;97197.02;127612;1096;23708;-94
2021/07/22 11:08:28;;;;;;;7.78;4.98;;;;;;;22.24;53.39;97191.06;127661;1096;22799;-91
2021/07/22 11:11:02;;;;;;;8.98;5.58;;;;;;;22.24;53.29;97191.06;127663;1096;24389;-93
2021/07/22 11:13:49;;;;;;;8.50;5.58;;;;;;;22.25;53.95;97191.85;127584;1095;22920;-93
2021/07/22 11:16:25;;;;;;;7.65;4.68;;;;;;;22.41;53.98;97188.11;127601;1096;25725;-93
2021/07/22 11:19:02;;;;;;;8.88;4.83;;;;;;;22.54;54.40;97179.98;127678;1096;22793;-93
2021/07/22 11:21:35;;;;;;;9.50;5.43;;;;;;;22.67;54.45;97181.52;127558;1096;39032;-93
2021/07/22 11:24:16;;;;;;;9.20;5.35;;;;;;;22.77;54.44;97181.80;127578;1096;26667;-93
2021/07/22 11:26:52;;;;;;;9.03;5.38;;;;;;;22.90;54.08;97181.80;127570;1096;24198;-94
2021/07/22 11:29:25;;;;;;;8.13;5.00;;;;;;;23.01;53.10;97177.47;127563;1095;24264;-94
2021/07/22 11:32:02;;;;;;;8.53;5.10;;;;;;;23.10;53.15;97181.61;127592;1097;23708;-93
2021/07/22 11:34:36;;;;;;;7.33;5.00;;;;;;;23.19;52.74;97181.44;127566;1096;25791;-93
2021/07/22 11:37:08;;;;;;;8.13;5.15;;;;;;;23.25;51.41;97176.58;127570;1096;23092;-93
2021/07/22 11:39:42;;;;;;;8.83;5.30;;;;;;;23.27;52.48;97174.30;127570;1096;25850;-90
2021/07/22 11:42:15;;;;;;;8.48;5.40;;;;;;;23.42;52.96;97170.83;127581;1097;24177;-94
2021/07/22 11:45:01;;;;;;;10.05;5.20;;;;;;;23.48;52.02;97177.55;127585;1096;22948;-93
2021/07/22 11:47:35;;;;;;;8.58;5.65;;;;;;;23.48;52.39;97172.13;127615;1095;22821;-90
2021/07/22 11:50:07;;;;;;;8.00;5.68;;;;;;;23.44;52.42;97168.56;127536;1096;26694;-92